createdAt,value
2019-02-24T00:04:42.649Z,6.7
2019-02-24T00:09:42.580Z,6.7
2019-02-24T00:14:42.385Z,6.6
2019-02-24T00:19:42.321Z,6.7
2019-02-24T00:24:42.528Z,6.6
2019-02-24T00:29:42.414Z,6.6
2019-02-24T00:34:42.486Z,6.6
2019-02-24T00:39:42.486Z,6.3
2019-02-24T00:44:42.301Z,6.4
2019-02-24T00:49:42.598Z,6.3
2019-02-24T00:54:42.400Z,6.2
2019-02-24T00:59:42.554Z,6.2
2019-02-24T01:04:42.354Z,6.2
2019-02-24T01:09:42.471Z,6.1
2019-02-24T01:14:42.213Z,6.1
2019-02-24T01:19:42.383Z,6.1
2019-02-24T01:24:42.237Z,6
2019-02-24T01:29:42.238Z,6
2019-02-24T01:34:42.375Z,5.8
2019-02-24T01:39:42.502Z,5.8
2019-02-24T01:44:42.228Z,5.7
2019-02-24T01:49:42.490Z,5.7
2019-02-24T01:54:42.417Z,5.8
2019-02-24T01:59:42.397Z,5.8
2019-02-24T02:04:42.463Z,5.6
2019-02-24T02:09:42.342Z,5.7
2019-02-24T02:14:42.392Z,5.6
2019-02-24T02:19:42.215Z,5.6
2019-02-24T02:24:42.436Z,5.5
2019-02-24T02:29:42.187Z,5.6
2019-02-24T02:34:42.336Z,5.5
2019-02-24T02:39:42.394Z,5.4
2019-02-24T02:44:42.308Z,5.4
2019-02-24T02:49:42.365Z,5.4
2019-02-24T02:54:42.411Z,5.4
2019-02-24T02:59:42.110Z,5.4
2019-02-24T03:04:42.379Z,5.4
2019-02-24T03:09:42.351Z,5.3
2019-02-24T03:14:42.056Z,5.2
2019-02-24T03:19:42.078Z,5.1
2019-02-24T03:24:42.129Z,5.1
2019-02-24T03:29:42.248Z,5.2
2019-02-24T03:34:42.290Z,5.1
2019-02-24T03:39:42.025Z,5
2019-02-24T03:44:42.125Z,4.9
2019-02-24T03:49:42.167Z,4.8
2019-02-24T03:54:42.131Z,4.7
2019-02-24T03:59:42.255Z,4.7
2019-02-24T04:04:42.337Z,4.6
2019-02-24T04:09:42.197Z,4.5
2019-02-24T04:14:42.144Z,4.5
2019-02-24T04:19:42.233Z,4.4
2019-02-24T04:24:42.282Z,4.4
2019-02-24T04:29:42.173Z,4.3
2019-02-24T04:34:42.032Z,4.3
2019-02-24T04:39:42.076Z,4.3
2019-02-24T04:44:41.984Z,4.3
2019-02-24T04:49:42.077Z,4.3
2019-02-24T04:54:42.111Z,4.3
2019-02-24T04:59:42.151Z,4.3
2019-02-24T05:04:42.025Z,4.3
2019-02-24T05:09:42.190Z,4.3
2019-02-24T05:14:41.840Z,4.3
2019-02-24T05:19:41.922Z,4.1
2019-02-24T05:24:41.970Z,4.2
2019-02-24T05:29:45.836Z,4.1
2019-02-24T05:34:42.166Z,4.2
2019-02-24T05:39:42.092Z,4.1
2019-02-24T05:44:42.003Z,4.1
2019-02-24T05:49:42.054Z,4
2019-02-24T05:54:41.791Z,4
2019-02-24T05:59:41.805Z,4.1
2019-02-24T06:04:41.978Z,4
2019-02-24T06:09:41.973Z,3.9
2019-02-24T06:14:41.885Z,3.9
2019-02-24T06:19:41.878Z,3.9
2019-02-24T06:24:41.910Z,3.9
2019-02-24T06:29:41.746Z,3.9
2019-02-24T06:34:41.988Z,3.9
2019-02-24T06:39:41.913Z,3.9
2019-02-24T06:44:41.919Z,3.8
2019-02-24T06:49:41.935Z,3.8
2019-02-24T06:54:41.955Z,3.8
2019-02-24T06:59:41.895Z,3.8
2019-02-24T07:04:41.802Z,3.8
2019-02-24T07:09:42.039Z,3.8
2019-02-24T07:14:41.711Z,3.8
2019-02-24T07:19:41.720Z,4
2019-02-24T07:24:41.796Z,4
2019-02-24T07:29:41.941Z,4.1
2019-02-24T07:34:41.661Z,4.2
2019-02-24T07:39:41.965Z,4.2
2019-02-24T07:44:41.825Z,4.3
2019-02-24T07:49:41.846Z,4.4
2019-02-24T07:54:41.626Z,4.4
2019-02-24T07:59:41.675Z,4.6
2019-02-24T08:04:41.672Z,4.8
2019-02-24T08:09:41.897Z,4.8
2019-02-24T08:14:41.575Z,5
2019-02-24T08:19:41.855Z,5.2
2019-02-24T08:24:41.651Z,5.5
2019-02-24T08:29:41.589Z,5.8
2019-02-24T08:34:41.623Z,5.9
2019-02-24T08:39:41.616Z,6.3
2019-02-24T08:44:41.859Z,6.7
2019-02-24T08:49:41.841Z,7
2019-02-24T08:54:41.894Z,7.4
2019-02-24T08:59:41.760Z,7.6
2019-02-24T09:04:41.693Z,7.8
2019-02-24T09:09:41.650Z,8.1
2019-02-24T09:14:41.624Z,8.1
2019-02-24T09:19:41.680Z,8.3
2019-02-24T09:24:41.537Z,8.4
2019-02-24T09:29:41.703Z,8.7
2019-02-24T09:34:41.778Z,8.6
2019-02-24T09:39:41.666Z,8.7
2019-02-24T09:44:41.465Z,8.6
2019-02-24T09:49:41.771Z,8.8
2019-02-24T09:54:41.513Z,9
2019-02-24T09:59:41.575Z,9.2
2019-02-24T10:04:41.496Z,9.4
2019-02-24T10:09:41.739Z,9.6
2019-02-24T10:14:41.677Z,9.8
2019-02-24T10:19:41.746Z,9.9
2019-02-24T10:24:41.517Z,10.1
2019-02-24T10:29:41.393Z,10.1
2019-02-24T10:34:41.435Z,10.4
2019-02-24T10:39:41.659Z,10.6
2019-02-24T10:44:41.385Z,10.9
2019-02-24T10:49:41.647Z,10.9
2019-02-24T10:54:41.447Z,11
2019-02-24T10:59:41.436Z,11.3
2019-02-24T11:04:41.610Z,11.6
2019-02-24T11:09:41.428Z,11.6
2019-02-24T11:14:41.646Z,11.7
2019-02-24T11:19:41.541Z,11.8
2019-02-24T11:24:41.323Z,11.9
2019-02-24T11:29:41.594Z,11.9
2019-02-24T11:34:41.483Z,12.1
2019-02-24T11:39:41.581Z,12.2
2019-02-24T11:44:41.286Z,12.4
2019-02-24T11:49:41.322Z,12.4
2019-02-24T11:54:41.437Z,12.4
2019-02-24T11:59:41.385Z,12.7
2019-02-24T12:04:41.474Z,13.1
2019-02-24T12:09:41.369Z,13.2
2019-02-24T12:14:41.369Z,13.2
2019-02-24T12:19:41.470Z,13.6
2019-02-24T12:24:41.469Z,14.1
2019-02-24T12:29:41.474Z,14.3
2019-02-24T12:34:41.480Z,14.3
2019-02-24T12:39:41.336Z,14.5
2019-02-24T12:44:41.544Z,14.9
2019-02-24T12:49:41.264Z,14.8
2019-02-24T12:54:41.275Z,14.6
2019-02-24T12:59:41.231Z,14.6
2019-02-24T13:04:41.182Z,14.7
2019-02-24T13:09:41.226Z,14.6
2019-02-24T13:14:41.378Z,14.8
2019-02-24T13:19:41.363Z,14.8
2019-02-24T13:24:41.171Z,14.9
2019-02-24T13:29:41.417Z,14.7
2019-02-24T13:34:41.316Z,14.5
2019-02-24T13:39:41.102Z,14.5
2019-02-24T13:44:41.192Z,14.6
2019-02-24T13:49:43.000Z,14.5
2019-02-24T13:54:41.351Z,14.6
2019-02-24T13:59:41.320Z,14.4
2019-02-24T14:04:41.198Z,14.4
2019-02-24T14:09:41.243Z,14.6
2019-02-24T14:14:48.857Z,14.6
2019-02-24T14:19:41.058Z,14.5
2019-02-24T14:24:41.368Z,14.5
2019-02-24T14:29:41.202Z,14.5
2019-02-24T14:34:41.057Z,14.5
2019-02-24T14:39:41.023Z,14.5
2019-02-24T14:44:41.202Z,14.5
2019-02-24T14:49:41.291Z,14.6
2019-02-24T14:54:41.012Z,14.8
2019-02-24T14:59:41.072Z,14.6
2019-02-24T15:04:41.078Z,14.6
2019-02-24T15:09:41.060Z,14.7
2019-02-24T15:14:41.203Z,14.6
2019-02-24T15:19:41.036Z,14.7
2019-02-24T15:24:41.204Z,14.8
2019-02-24T15:29:41.135Z,14.8
2019-02-24T15:34:41.114Z,14.7
2019-02-24T15:39:41.136Z,14.9
2019-02-24T15:44:41.209Z,15.1
2019-02-24T15:49:40.907Z,15
2019-02-24T15:54:40.934Z,14.9
2019-02-24T15:59:40.935Z,14.8
2019-02-24T16:04:41.089Z,14.9
2019-02-24T16:09:41.209Z,14.7
2019-02-24T16:14:41.131Z,14.6
2019-02-24T16:19:41.063Z,14.5
2019-02-24T16:24:41.202Z,14.4
2019-02-24T16:29:41.142Z,14.2
2019-02-24T16:34:40.851Z,14.2
2019-02-24T16:39:41.061Z,14
2019-02-24T16:44:40.983Z,13.9
2019-02-24T16:49:40.984Z,13.9
2019-02-24T16:54:41.018Z,13.8
2019-02-24T16:59:41.024Z,13.6
2019-02-24T17:04:40.889Z,13.5
2019-02-24T17:09:40.886Z,13.4
2019-02-24T17:14:40.817Z,13.3
2019-02-24T17:19:41.040Z,13.2
2019-02-24T17:24:41.063Z,13.1
2019-02-24T17:29:41.077Z,12.9
2019-02-24T17:34:40.978Z,12.8
2019-02-24T17:39:41.081Z,12.7
2019-02-24T17:44:40.960Z,12.6
2019-02-24T17:49:40.957Z,12.5
2019-02-24T17:54:41.089Z,12.3
2019-02-24T17:59:41.070Z,12.3
2019-02-24T18:04:40.840Z,12.2
2019-02-24T18:09:40.911Z,12.1
2019-02-24T18:14:40.701Z,12
2019-02-24T18:19:41.021Z,12
2019-02-24T18:40:15.101Z,11.6
2019-02-24T18:45:29.285Z,11.5
2019-02-24T18:50:01.294Z,11.4
2019-02-24T18:55:01.689Z,11.3
2019-02-24T19:00:02.003Z,11.3
2019-02-24T19:05:01.333Z,11.2
2019-02-24T19:10:01.156Z,11.1
2019-02-24T19:15:01.338Z,10.9
2019-02-24T19:20:00.949Z,11
2019-02-24T19:25:01.303Z,10.6
2019-02-24T19:30:01.515Z,10.6
2019-02-24T19:35:01.293Z,10.3
2019-02-24T19:41:32.470Z,10.3
2019-02-24T19:46:24.655Z,10
2019-02-24T19:50:01.559Z,9.9
2019-02-24T19:55:01.722Z,9.7
2019-02-24T20:00:01.247Z,9.6
2019-02-24T20:05:01.182Z,9.5
2019-02-24T20:30:31.079Z,9.1
2019-02-24T20:35:01.054Z,8.9
2019-02-24T20:40:01.526Z,9
2019-02-24T20:45:01.210Z,8.9
2019-02-24T20:50:01.377Z,8.8
2019-02-24T21:15:10.877Z,9.1
2019-02-24T21:20:01.245Z,8.9
2019-02-24T21:25:01.389Z,9
2019-02-24T21:30:01.206Z,8.9
2019-02-24T21:35:01.167Z,8.8
2019-02-24T21:40:01.259Z,8.6
2019-02-24T21:45:00.992Z,8.7
2019-02-24T21:50:01.153Z,8.6
2019-02-24T21:55:01.381Z,8.7
2019-02-24T22:00:01.357Z,8.5
2019-02-24T22:05:00.923Z,8.7
2019-02-24T22:10:01.159Z,8.6
2019-02-24T22:15:01.195Z,8.6
2019-02-24T22:20:01.053Z,8.6
2019-02-24T22:25:01.147Z,8.7
2019-02-24T22:30:01.332Z,8.7
2019-02-24T22:35:01.015Z,8.7
2019-02-24T22:40:01.553Z,8.9
2019-02-24T22:45:01.636Z,8.6
2019-02-24T22:50:01.372Z,8.7
2019-02-24T22:55:01.305Z,8.6
2019-02-24T23:00:01.286Z,8.4
2019-02-24T23:05:01.260Z,8.5
2019-02-24T23:10:00.963Z,8.2
2019-02-24T23:15:01.171Z,8.3
2019-02-24T23:20:01.443Z,8.2
2019-02-24T23:25:01.139Z,8.2
2019-02-24T23:30:01.194Z,8.1
2019-02-24T23:35:19.279Z,7.9
2019-02-24T23:55:05.662Z,7.5
